sensor_id;sensor_type;location;lat;lon;timestamp;temperature;humidity
78490;DHT22;67776;52.012;4.736;2023-05-10T00:02:22;12.14;95.49
78490;DHT22;67776;52.012;4.736;2023-05-10T00:04:48;12.08;95.54
78490;DHT22;67776;52.012;4.736;2023-05-10T00:07:13;12.10;95.50
78490;DHT22;67776;52.012;4.736;2023-05-10T00:09:38;12.10;95.47
78490;DHT22;67776;52.012;4.736;2023-05-10T00:12:04;12.02;95.68
78490;DHT22;67776;52.012;4.736;2023-05-10T00:14:29;12.04;95.72
78490;DHT22;67776;52.012;4.736;2023-05-10T00:16:55;12.04;95.76
78490;DHT22;67776;52.012;4.736;2023-05-10T00:19:20;12.08;96.00
78490;DHT22;67776;52.012;4.736;2023-05-10T00:21:45;12.01;96.19
78490;DHT22;67776;52.012;4.736;2023-05-10T00:24:11;12.04;96.35
78490;DHT22;67776;52.012;4.736;2023-05-10T00:26:36;12.10;96.41
78490;DHT22;67776;52.012;4.736;2023-05-10T00:29:02;12.18;96.19
78490;DHT22;67776;52.012;4.736;2023-05-10T00:31:27;12.14;96.21
78490;DHT22;67776;52.012;4.736;2023-05-10T00:33:52;12.20;96.26
78490;DHT22;67776;52.012;4.736;2023-05-10T00:36:18;12.10;96.23
78490;DHT22;67776;52.012;4.736;2023-05-10T00:38:43;12.17;96.26
78490;DHT22;67776;52.012;4.736;2023-05-10T00:41:08;12.20;96.20
78490;DHT22;67776;52.012;4.736;2023-05-10T00:43:34;12.18;96.14
78490;DHT22;67776;52.012;4.736;2023-05-10T00:45:59;12.10;96.07
78490;DHT22;67776;52.012;4.736;2023-05-10T00:48:24;12.10;96.18
78490;DHT22;67776;52.012;4.736;2023-05-10T00:50:50;12.01;96.11
78490;DHT22;67776;52.012;4.736;2023-05-10T00:53:15;12.10;96.11
78490;DHT22;67776;52.012;4.736;2023-05-10T00:55:41;12.06;95.99
78490;DHT22;67776;52.012;4.736;2023-05-10T00:58:06;12.10;96.02
78490;DHT22;67776;52.012;4.736;2023-05-10T01:00:33;12.08;96.11
78490;DHT22;67776;52.012;4.736;2023-05-10T01:02:58;12.12;95.94
78490;DHT22;67776;52.012;4.736;2023-05-10T01:05:24;12.02;95.95
78490;DHT22;67776;52.012;4.736;2023-05-10T01:07:50;11.99;95.95
78490;DHT22;67776;52.012;4.736;2023-05-10T01:10:16;11.99;96.19
78490;DHT22;67776;52.012;4.736;2023-05-10T01:12:43;12.02;96.17
78490;DHT22;67776;52.012;4.736;2023-05-10T01:15:10;12.01;96.20
78490;DHT22;67776;52.012;4.736;2023-05-10T01:17:38;11.95;96.15
78490;DHT22;67776;52.012;4.736;2023-05-10T01:20:06;12.08;96.37
78490;DHT22;67776;52.012;4.736;2023-05-10T01:23:17;12.08;96.17
78490;DHT22;67776;52.012;4.736;2023-05-10T01:31:22;12.15;96.30
78490;DHT22;67776;52.012;4.736;2023-05-10T01:33:57;12.14;96.26
78490;DHT22;67776;52.012;4.736;2023-05-10T01:36:31;12.15;96.32
78490;DHT22;67776;52.012;4.736;2023-05-10T01:39:09;12.15;96.17
78490;DHT22;67776;52.012;4.736;2023-05-10T01:44:24;12.21;96.02
78490;DHT22;67776;52.012;4.736;2023-05-10T01:47:01;12.18;95.94
78490;DHT22;67776;52.012;4.736;2023-05-10T01:49:32;12.24;96.11
78490;DHT22;67776;52.012;4.736;2023-05-10T01:52:06;12.15;96.12
78490;DHT22;67776;52.012;4.736;2023-05-10T01:54:33;12.20;95.87
78490;DHT22;67776;52.012;4.736;2023-05-10T01:57:02;12.22;96.00
78490;DHT22;67776;52.012;4.736;2023-05-10T01:59:31;12.17;95.88
78490;DHT22;67776;52.012;4.736;2023-05-10T02:02:01;12.20;96.09
78490;DHT22;67776;52.012;4.736;2023-05-10T02:04:28;12.18;96.16
78490;DHT22;67776;52.012;4.736;2023-05-10T02:06:54;12.18;96.23
78490;DHT22;67776;52.012;4.736;2023-05-10T02:09:21;12.14;95.96
78490;DHT22;67776;52.012;4.736;2023-05-10T02:11:48;12.22;96.01
78490;DHT22;67776;52.012;4.736;2023-05-10T02:14:14;12.31;95.81
78490;DHT22;67776;52.012;4.736;2023-05-10T02:16:41;12.29;95.84
78490;DHT22;67776;52.012;4.736;2023-05-10T02:19:09;12.28;95.69
78490;DHT22;67776;52.012;4.736;2023-05-10T02:21:35;12.31;95.37
78490;DHT22;67776;52.012;4.736;2023-05-10T02:24:03;12.32;95.58
78490;DHT22;67776;52.012;4.736;2023-05-10T02:26:30;12.33;95.62
78490;DHT22;67776;52.012;4.736;2023-05-10T02:28:56;12.32;95.55
78490;DHT22;67776;52.012;4.736;2023-05-10T02:31:24;12.31;95.73
78490;DHT22;67776;52.012;4.736;2023-05-10T02:33:51;12.32;95.63
78490;DHT22;67776;52.012;4.736;2023-05-10T02:36:16;12.32;95.68
78490;DHT22;67776;52.012;4.736;2023-05-10T02:38:43;12.33;95.89
78490;DHT22;67776;52.012;4.736;2023-05-10T02:41:09;12.33;95.75
78490;DHT22;67776;52.012;4.736;2023-05-10T02:43:37;12.33;95.92
78490;DHT22;67776;52.012;4.736;2023-05-10T02:46:03;12.35;95.37
78490;DHT22;67776;52.012;4.736;2023-05-10T02:48:29;12.39;95.42
78490;DHT22;67776;52.012;4.736;2023-05-10T02:50:56;12.40;95.30
78490;DHT22;67776;52.012;4.736;2023-05-10T02:53:31;12.43;95.24
78490;DHT22;67776;52.012;4.736;2023-05-10T02:55:59;12.49;95.02
78490;DHT22;67776;52.012;4.736;2023-05-10T02:58:25;12.46;94.74
78490;DHT22;67776;52.012;4.736;2023-05-10T03:00:51;12.46;94.81
78490;DHT22;67776;52.012;4.736;2023-05-10T03:03:17;12.46;95.29
78490;DHT22;67776;52.012;4.736;2023-05-10T03:05:42;12.49;95.13
78490;DHT22;67776;52.012;4.736;2023-05-10T03:08:08;12.50;94.97
78490;DHT22;67776;52.012;4.736;2023-05-10T03:10:40;12.48;95.38
78490;DHT22;67776;52.012;4.736;2023-05-10T03:13:25;12.49;95.53
78490;DHT22;67776;52.012;4.736;2023-05-10T03:16:07;12.52;95.49
78490;DHT22;67776;52.012;4.736;2023-05-10T03:18:44;12.52;95.20
78490;DHT22;67776;52.012;4.736;2023-05-10T03:21:11;12.49;95.01
78490;DHT22;67776;52.012;4.736;2023-05-10T03:23:51;12.40;94.82
78490;DHT22;67776;52.012;4.736;2023-05-10T03:26:38;12.45;95.01
78490;DHT22;67776;52.012;4.736;2023-05-10T03:29:04;12.46;95.20
78490;DHT22;67776;52.012;4.736;2023-05-10T03:31:30;12.46;95.08
78490;DHT22;67776;52.012;4.736;2023-05-10T03:33:55;12.48;95.50
78490;DHT22;67776;52.012;4.736;2023-05-10T03:36:21;12.52;95.34
78490;DHT22;67776;52.012;4.736;2023-05-10T03:38:46;12.55;95.35
78490;DHT22;67776;52.012;4.736;2023-05-10T03:41:12;12.53;95.14
78490;DHT22;67776;52.012;4.736;2023-05-10T03:43:37;12.52;94.98
78490;DHT22;67776;52.012;4.736;2023-05-10T03:46:04;12.52;94.71
78490;DHT22;67776;52.012;4.736;2023-05-10T03:48:30;12.52;94.60
78490;DHT22;67776;52.012;4.736;2023-05-10T03:50:55;12.45;95.23
78490;DHT22;67776;52.012;4.736;2023-05-10T03:53:20;12.42;95.24
78490;DHT22;67776;52.012;4.736;2023-05-10T03:55:46;12.42;95.04
78490;DHT22;67776;52.012;4.736;2023-05-10T03:58:11;12.40;95.01
78490;DHT22;67776;52.012;4.736;2023-05-10T04:00:37;12.40;95.07
78490;DHT22;67776;52.012;4.736;2023-05-10T04:03:02;12.39;94.84
78490;DHT22;67776;52.012;4.736;2023-05-10T04:05:28;12.42;95.11
78490;DHT22;67776;52.012;4.736;2023-05-10T04:07:53;12.39;94.99
78490;DHT22;67776;52.012;4.736;2023-05-10T04:10:19;12.43;95.15
78490;DHT22;67776;52.012;4.736;2023-05-10T04:12:45;12.48;94.99
78490;DHT22;67776;52.012;4.736;2023-05-10T04:15:11;12.49;94.78
78490;DHT22;67776;52.012;4.736;2023-05-10T04:17:36;12.42;94.84
78490;DHT22;67776;52.012;4.736;2023-05-10T04:20:02;12.39;94.94
78490;DHT22;67776;52.012;4.736;2023-05-10T04:22:28;12.42;94.88
78490;DHT22;67776;52.012;4.736;2023-05-10T04:24:54;12.46;94.83
78490;DHT22;67776;52.012;4.736;2023-05-10T04:27:19;12.40;94.61
78490;DHT22;67776;52.012;4.736;2023-05-10T04:29:44;12.42;94.86
78490;DHT22;67776;52.012;4.736;2023-05-10T04:32:10;12.40;94.56
78490;DHT22;67776;52.012;4.736;2023-05-10T04:34:36;12.42;94.71
78490;DHT22;67776;52.012;4.736;2023-05-10T04:37:01;12.38;95.10
78490;DHT22;67776;52.012;4.736;2023-05-10T04:39:27;12.35;94.72
78490;DHT22;67776;52.012;4.736;2023-05-10T04:41:52;12.35;94.75
78490;DHT22;67776;52.012;4.736;2023-05-10T04:44:17;12.38;94.87
78490;DHT22;67776;52.012;4.736;2023-05-10T04:46:43;12.43;94.83
78490;DHT22;67776;52.012;4.736;2023-05-10T04:49:08;12.49;94.64
78490;DHT22;67776;52.012;4.736;2023-05-10T04:51:33;12.52;95.17
78490;DHT22;67776;52.012;4.736;2023-05-10T04:53:59;12.45;94.76
78490;DHT22;67776;52.012;4.736;2023-05-10T04:56:24;12.49;94.91
78490;DHT22;67776;52.012;4.736;2023-05-10T04:58:49;12.46;94.68
78490;DHT22;67776;52.012;4.736;2023-05-10T05:01:15;12.46;94.81
78490;DHT22;67776;52.012;4.736;2023-05-10T05:03:40;12.45;94.71
78490;DHT22;67776;52.012;4.736;2023-05-10T05:06:06;12.43;94.31
78490;DHT22;67776;52.012;4.736;2023-05-10T05:08:31;12.42;94.11
78490;DHT22;67776;52.012;4.736;2023-05-10T05:10:57;12.42;93.91
78490;DHT22;67776;52.012;4.736;2023-05-10T05:13:22;12.36;94.14
78490;DHT22;67776;52.012;4.736;2023-05-10T05:15:47;12.39;93.96
78490;DHT22;67776;52.012;4.736;2023-05-10T05:18:13;12.35;93.48
78490;DHT22;67776;52.012;4.736;2023-05-10T05:20:38;12.39;93.76
78490;DHT22;67776;52.012;4.736;2023-05-10T05:23:03;12.42;93.75
78490;DHT22;67776;52.012;4.736;2023-05-10T05:25:28;12.43;93.60
78490;DHT22;67776;52.012;4.736;2023-05-10T05:27:54;12.46;93.04
78490;DHT22;67776;52.012;4.736;2023-05-10T05:30:19;12.56;93.13
78490;DHT22;67776;52.012;4.736;2023-05-10T05:32:45;12.61;93.20
78490;DHT22;67776;52.012;4.736;2023-05-10T05:35:12;12.59;92.56
78490;DHT22;67776;52.012;4.736;2023-05-10T05:37:37;12.45;92.86
78490;DHT22;67776;52.012;4.736;2023-05-10T05:40:03;12.42;92.25
78490;DHT22;67776;52.012;4.736;2023-05-10T05:42:28;12.43;92.75
78490;DHT22;67776;52.012;4.736;2023-05-10T05:44:54;12.45;93.95
78490;DHT22;67776;52.012;4.736;2023-05-10T05:47:19;12.40;92.84
78490;DHT22;67776;52.012;4.736;2023-05-10T05:49:44;12.40;93.02
78490;DHT22;67776;52.012;4.736;2023-05-10T05:52:12;12.43;93.16
78490;DHT22;67776;52.012;4.736;2023-05-10T05:54:38;12.43;93.18
78490;DHT22;67776;52.012;4.736;2023-05-10T05:57:04;12.49;93.00
78490;DHT22;67776;52.012;4.736;2023-05-10T05:59:29;12.49;92.71
78490;DHT22;67776;52.012;4.736;2023-05-10T06:01:54;12.43;92.65
78490;DHT22;67776;52.012;4.736;2023-05-10T06:04:20;12.46;93.47
78490;DHT22;67776;52.012;4.736;2023-05-10T06:06:45;12.42;93.26
78490;DHT22;67776;52.012;4.736;2023-05-10T06:09:11;12.40;92.93
78490;DHT22;67776;52.012;4.736;2023-05-10T06:11:36;12.39;93.51
78490;DHT22;67776;52.012;4.736;2023-05-10T06:14:03;12.48;92.85
78490;DHT22;67776;52.012;4.736;2023-05-10T06:16:29;12.53;92.43
78490;DHT22;67776;52.012;4.736;2023-05-10T06:18:55;12.70;92.86
78490;DHT22;67776;52.012;4.736;2023-05-10T06:21:20;12.87;92.53
78490;DHT22;67776;52.012;4.736;2023-05-10T06:23:46;12.91;92.04
78490;DHT22;67776;52.012;4.736;2023-05-10T06:26:11;12.93;92.31
78490;DHT22;67776;52.012;4.736;2023-05-10T06:28:37;12.76;91.10
78490;DHT22;67776;52.012;4.736;2023-05-10T06:31:06;12.76;91.67
78490;DHT22;67776;52.012;4.736;2023-05-10T06:33:31;12.79;91.95
78490;DHT22;67776;52.012;4.736;2023-05-10T06:35:57;12.86;92.35
78490;DHT22;67776;52.012;4.736;2023-05-10T06:38:23;12.91;91.14
78490;DHT22;67776;52.012;4.736;2023-05-10T06:40:48;13.08;90.89
78490;DHT22;67776;52.012;4.736;2023-05-10T06:43:13;13.16;90.31
78490;DHT22;67776;52.012;4.736;2023-05-10T06:45:39;13.15;90.52
78490;DHT22;67776;52.012;4.736;2023-05-10T06:48:04;13.28;91.08
78490;DHT22;67776;52.012;4.736;2023-05-10T06:50:29;13.29;90.08
78490;DHT22;67776;52.012;4.736;2023-05-10T06:52:55;13.19;91.23
78490;DHT22;67776;52.012;4.736;2023-05-10T06:55:21;13.36;90.89
78490;DHT22;67776;52.012;4.736;2023-05-10T06:57:46;13.48;90.69
78490;DHT22;67776;52.012;4.736;2023-05-10T07:00:13;13.46;90.14
78490;DHT22;67776;52.012;4.736;2023-05-10T07:02:38;13.49;90.12
78490;DHT22;67776;52.012;4.736;2023-05-10T07:05:04;13.69;90.26
78490;DHT22;67776;52.012;4.736;2023-05-10T07:07:29;13.73;88.34
78490;DHT22;67776;52.012;4.736;2023-05-10T07:09:55;13.48;88.90
78490;DHT22;67776;52.012;4.736;2023-05-10T07:12:22;13.65;88.24
78490;DHT22;67776;52.012;4.736;2023-05-10T07:14:47;13.53;88.80
78490;DHT22;67776;52.012;4.736;2023-05-10T07:17:13;13.45;87.73
78490;DHT22;67776;52.012;4.736;2023-05-10T07:19:38;13.56;88.80
78490;DHT22;67776;52.012;4.736;2023-05-10T07:22:03;13.49;89.14
78490;DHT22;67776;52.012;4.736;2023-05-10T07:24:29;13.56;89.76
78490;DHT22;67776;52.012;4.736;2023-05-10T07:26:57;13.67;88.93
78490;DHT22;67776;52.012;4.736;2023-05-10T07:29:22;13.70;87.71
78490;DHT22;67776;52.012;4.736;2023-05-10T07:31:47;13.65;89.51
78490;DHT22;67776;52.012;4.736;2023-05-10T07:34:13;13.65;89.46
78490;DHT22;67776;52.012;4.736;2023-05-10T07:36:38;13.59;89.40
78490;DHT22;67776;52.012;4.736;2023-05-10T07:39:03;13.50;90.11
78490;DHT22;67776;52.012;4.736;2023-05-10T07:41:29;13.36;89.72
78490;DHT22;67776;52.012;4.736;2023-05-10T07:43:55;13.46;88.98
78490;DHT22;67776;52.012;4.736;2023-05-10T07:46:20;13.43;89.71
78490;DHT22;67776;52.012;4.736;2023-05-10T07:48:45;13.32;89.96
78490;DHT22;67776;52.012;4.736;2023-05-10T07:51:11;13.41;90.07
78490;DHT22;67776;52.012;4.736;2023-05-10T07:53:37;13.43;89.84
78490;DHT22;67776;52.012;4.736;2023-05-10T07:56:24;13.38;90.10
78490;DHT22;67776;52.012;4.736;2023-05-10T07:58:51;13.38;90.17
78490;DHT22;67776;52.012;4.736;2023-05-10T08:01:17;13.41;89.50
78490;DHT22;67776;52.012;4.736;2023-05-10T08:03:43;13.42;88.47
78490;DHT22;67776;52.012;4.736;2023-05-10T08:06:08;13.45;89.31
78490;DHT22;67776;52.012;4.736;2023-05-10T08:08:33;13.43;89.52
78490;DHT22;67776;52.012;4.736;2023-05-10T08:10:59;13.45;89.90
78490;DHT22;67776;52.012;4.736;2023-05-10T08:13:24;13.41;90.41
78490;DHT22;67776;52.012;4.736;2023-05-10T08:15:49;13.42;90.09
78490;DHT22;67776;52.012;4.736;2023-05-10T08:18:18;13.42;89.41
78490;DHT22;67776;52.012;4.736;2023-05-10T08:20:43;13.45;88.86
78490;DHT22;67776;52.012;4.736;2023-05-10T08:23:09;13.52;89.12
78490;DHT22;67776;52.012;4.736;2023-05-10T08:25:34;13.65;88.65
78490;DHT22;67776;52.012;4.736;2023-05-10T08:27:59;13.69;89.15
78490;DHT22;67776;52.012;4.736;2023-05-10T08:30:25;13.70;90.19
78490;DHT22;67776;52.012;4.736;2023-05-10T08:32:50;13.70;90.42
78490;DHT22;67776;52.012;4.736;2023-05-10T08:35:15;13.58;90.19
78490;DHT22;67776;52.012;4.736;2023-05-10T08:37:41;13.58;90.94
78490;DHT22;67776;52.012;4.736;2023-05-10T08:40:07;13.56;90.53
78490;DHT22;67776;52.012;4.736;2023-05-10T08:42:36;13.55;90.85
78490;DHT22;67776;52.012;4.736;2023-05-10T08:45:03;13.58;88.19
78490;DHT22;67776;52.012;4.736;2023-05-10T08:47:29;13.52;87.68
78490;DHT22;67776;52.012;4.736;2023-05-10T08:49:55;13.66;86.33
78490;DHT22;67776;52.012;4.736;2023-05-10T08:52:23;13.77;87.81
78490;DHT22;67776;52.012;4.736;2023-05-10T08:54:50;13.87;87.07
78490;DHT22;67776;52.012;4.736;2023-05-10T08:57:15;13.80;87.68
78490;DHT22;67776;52.012;4.736;2023-05-10T08:59:40;13.83;87.06
78490;DHT22;67776;52.012;4.736;2023-05-10T09:02:06;13.80;86.95
78490;DHT22;67776;52.012;4.736;2023-05-10T09:04:35;13.70;86.38
78490;DHT22;67776;52.012;4.736;2023-05-10T09:07:00;13.74;87.13
78490;DHT22;67776;52.012;4.736;2023-05-10T09:09:27;13.74;88.86
78490;DHT22;67776;52.012;4.736;2023-05-10T09:11:53;13.70;87.51
78490;DHT22;67776;52.012;4.736;2023-05-10T09:14:19;13.77;89.43
78490;DHT22;67776;52.012;4.736;2023-05-10T09:16:45;13.77;89.01
78490;DHT22;67776;52.012;4.736;2023-05-10T09:19:10;13.70;89.50
78490;DHT22;67776;52.012;4.736;2023-05-10T09:21:36;13.71;89.53
78490;DHT22;67776;52.012;4.736;2023-05-10T09:24:06;13.67;88.25
78490;DHT22;67776;52.012;4.736;2023-05-10T09:26:32;13.76;88.91
78490;DHT22;67776;52.012;4.736;2023-05-10T09:28:59;13.78;88.88
78490;DHT22;67776;52.012;4.736;2023-05-10T09:31:43;13.90;89.21
78490;DHT22;67776;52.012;4.736;2023-05-10T09:34:09;14.13;88.97
78490;DHT22;67776;52.012;4.736;2023-05-10T09:36:35;14.21;87.75
78490;DHT22;67776;52.012;4.736;2023-05-10T09:39:00;14.42;86.54
78490;DHT22;67776;52.012;4.736;2023-05-10T09:41:25;14.72;86.43
78490;DHT22;67776;52.012;4.736;2023-05-10T09:43:55;14.87;84.29
78490;DHT22;67776;52.012;4.736;2023-05-10T09:46:22;15.14;86.11
78490;DHT22;67776;52.012;4.736;2023-05-10T09:48:51;15.30;84.17
78490;DHT22;67776;52.012;4.736;2023-05-10T09:51:23;15.39;86.77
78490;DHT22;67776;52.012;4.736;2023-05-10T09:54:11;15.38;83.66
78490;DHT22;67776;52.012;4.736;2023-05-10T09:56:37;15.28;85.21
78490;DHT22;67776;52.012;4.736;2023-05-10T09:59:05;15.07;85.03
78490;DHT22;67776;52.012;4.736;2023-05-10T10:01:31;14.93;86.18
78490;DHT22;67776;52.012;4.736;2023-05-10T10:03:56;14.81;86.84
78490;DHT22;67776;52.012;4.736;2023-05-10T10:06:23;14.80;84.97
78490;DHT22;67776;52.012;4.736;2023-05-10T10:08:50;14.93;86.66
78490;DHT22;67776;52.012;4.736;2023-05-10T10:11:15;14.96;84.86
78490;DHT22;67776;52.012;4.736;2023-05-10T10:13:41;14.76;84.95
78490;DHT22;67776;52.012;4.736;2023-05-10T10:16:08;14.93;84.95
78490;DHT22;67776;52.012;4.736;2023-05-10T10:18:36;15.03;84.82
78490;DHT22;67776;52.012;4.736;2023-05-10T10:21:07;15.05;83.66
78490;DHT22;67776;52.012;4.736;2023-05-10T10:23:34;15.17;84.89
78490;DHT22;67776;52.012;4.736;2023-05-10T10:26:01;14.87;84.77
78490;DHT22;67776;52.012;4.736;2023-05-10T10:28:38;14.68;87.47
78490;DHT22;67776;52.012;4.736;2023-05-10T10:31:21;14.50;87.93
78490;DHT22;67776;52.012;4.736;2023-05-10T10:34:11;14.22;89.62
78490;DHT22;67776;52.012;4.736;2023-05-10T10:36:45;14.11;89.49
78490;DHT22;67776;52.012;4.736;2023-05-10T10:39:10;14.07;89.98
78490;DHT22;67776;52.012;4.736;2023-05-10T10:41:39;14.31;89.74
78490;DHT22;67776;52.012;4.736;2023-05-10T10:44:34;14.28;88.97
78490;DHT22;67776;52.012;4.736;2023-05-10T10:52:39;14.77;88.19
78490;DHT22;67776;52.012;4.736;2023-05-10T10:57:55;14.98;89.59
78490;DHT22;67776;52.012;4.736;2023-05-10T11:00:27;15.24;87.85
78490;DHT22;67776;52.012;4.736;2023-05-10T11:03:04;15.30;83.18
78490;DHT22;67776;52.012;4.736;2023-05-10T11:05:41;15.30;84.70
78490;DHT22;67776;52.012;4.736;2023-05-10T11:18:36;14.62;85.40
78490;DHT22;67776;52.012;4.736;2023-05-10T11:21:02;14.46;85.88
78490;DHT22;67776;52.012;4.736;2023-05-10T11:25:56;14.29;87.84
78490;DHT22;67776;52.012;4.736;2023-05-10T11:28:21;14.28;87.99
78490;DHT22;67776;52.012;4.736;2023-05-10T11:30:47;14.24;88.41
78490;DHT22;67776;52.012;4.736;2023-05-10T11:33:17;14.24;88.34
78490;DHT22;67776;52.012;4.736;2023-05-10T11:35:42;14.29;89.06
78490;DHT22;67776;52.012;4.736;2023-05-10T11:38:12;14.31;87.94
78490;DHT22;67776;52.012;4.736;2023-05-10T11:40:38;14.38;89.41
78490;DHT22;67776;52.012;4.736;2023-05-10T11:43:04;14.38;89.15
78490;DHT22;67776;52.012;4.736;2023-05-10T11:45:34;14.35;87.95
78490;DHT22;67776;52.012;4.736;2023-05-10T11:47:59;14.38;87.20
78490;DHT22;67776;52.012;4.736;2023-05-10T11:50:25;14.31;86.77
78490;DHT22;67776;52.012;4.736;2023-05-10T11:52:55;14.39;86.40
78490;DHT22;67776;52.012;4.736;2023-05-10T11:55:20;14.31;87.08
78490;DHT22;67776;52.012;4.736;2023-05-10T11:57:46;14.28;86.38
78490;DHT22;67776;52.012;4.736;2023-05-10T12:00:12;14.43;87.86
78490;DHT22;67776;52.012;4.736;2023-05-10T12:02:38;14.65;88.71
78490;DHT22;67776;52.012;4.736;2023-05-10T12:05:04;14.66;86.80
78490;DHT22;67776;52.012;4.736;2023-05-10T12:07:30;14.69;86.79
78490;DHT22;67776;52.012;4.736;2023-05-10T12:12:41;14.65;87.58
78490;DHT22;67776;52.012;4.736;2023-05-10T12:15:17;14.73;87.51
78490;DHT22;67776;52.012;4.736;2023-05-10T12:17:44;14.90;88.46
78490;DHT22;67776;52.012;4.736;2023-05-10T12:20:18;15.15;88.42
78490;DHT22;67776;52.012;4.736;2023-05-10T12:22:45;15.41;86.85
78490;DHT22;67776;52.012;4.736;2023-05-10T12:25:11;15.56;81.72
78490;DHT22;67776;52.012;4.736;2023-05-10T12:27:36;15.39;82.25
78490;DHT22;67776;52.012;4.736;2023-05-10T12:30:02;15.53;84.35
78490;DHT22;67776;52.012;4.736;2023-05-10T12:32:54;15.66;84.17
78490;DHT22;67776;52.012;4.736;2023-05-10T12:35:24;15.70;81.60
78490;DHT22;67776;52.012;4.736;2023-05-10T12:37:51;15.70;82.22
78490;DHT22;67776;52.012;4.736;2023-05-10T12:40:16;15.66;80.97
78490;DHT22;67776;52.012;4.736;2023-05-10T12:42:42;15.70;81.22
78490;DHT22;67776;52.012;4.736;2023-05-10T12:45:08;15.55;82.00
78490;DHT22;67776;52.012;4.736;2023-05-10T12:47:34;15.52;82.00
78490;DHT22;67776;52.012;4.736;2023-05-10T12:50:00;15.53;82.31
78490;DHT22;67776;52.012;4.736;2023-05-10T12:52:26;15.60;83.37
78490;DHT22;67776;52.012;4.736;2023-05-10T12:54:53;15.76;84.81
78490;DHT22;67776;52.012;4.736;2023-05-10T12:57:20;15.63;83.33
78490;DHT22;67776;52.012;4.736;2023-05-10T12:59:45;15.83;81.13
78490;DHT22;67776;52.012;4.736;2023-05-10T13:02:11;15.94;78.81
78490;DHT22;67776;52.012;4.736;2023-05-10T13:04:36;16.17;80.29
78490;DHT22;67776;52.012;4.736;2023-05-10T13:07:06;15.90;79.64
78490;DHT22;67776;52.012;4.736;2023-05-10T13:09:31;15.97;81.67
78490;DHT22;67776;52.012;4.736;2023-05-10T13:11:56;15.52;80.10
78490;DHT22;67776;52.012;4.736;2023-05-10T13:14:22;15.36;80.95
78490;DHT22;67776;52.012;4.736;2023-05-10T13:16:47;15.12;81.73
78490;DHT22;67776;52.012;4.736;2023-05-10T13:19:13;14.96;81.53
78490;DHT22;67776;52.012;4.736;2023-05-10T13:21:39;14.87;83.70
78490;DHT22;67776;52.012;4.736;2023-05-10T13:24:06;14.98;82.68
78490;DHT22;67776;52.012;4.736;2023-05-10T13:26:32;14.98;83.15
78490;DHT22;67776;52.012;4.736;2023-05-10T13:28:57;14.93;81.51
78490;DHT22;67776;52.012;4.736;2023-05-10T13:31:22;14.88;82.96
78490;DHT22;67776;52.012;4.736;2023-05-10T13:33:48;14.90;85.11
78490;DHT22;67776;52.012;4.736;2023-05-10T13:36:13;14.94;82.20
78490;DHT22;67776;52.012;4.736;2023-05-10T13:38:39;14.93;82.54
78490;DHT22;67776;52.012;4.736;2023-05-10T13:41:04;14.88;84.03
78490;DHT22;67776;52.012;4.736;2023-05-10T13:43:29;14.90;82.04
78490;DHT22;67776;52.012;4.736;2023-05-10T13:45:55;14.77;83.32
78490;DHT22;67776;52.012;4.736;2023-05-10T13:48:20;14.87;84.83
78490;DHT22;67776;52.012;4.736;2023-05-10T13:50:46;14.87;83.33
78490;DHT22;67776;52.012;4.736;2023-05-10T13:53:12;14.86;81.94
78490;DHT22;67776;52.012;4.736;2023-05-10T13:55:37;14.93;82.05
78490;DHT22;67776;52.012;4.736;2023-05-10T13:58:03;14.96;82.60
78490;DHT22;67776;52.012;4.736;2023-05-10T14:00:28;15.00;83.25
78490;DHT22;67776;52.012;4.736;2023-05-10T14:02:53;14.98;83.16
78490;DHT22;67776;52.012;4.736;2023-05-10T14:05:19;14.96;81.62
78490;DHT22;67776;52.012;4.736;2023-05-10T14:07:44;14.98;84.67
78490;DHT22;67776;52.012;4.736;2023-05-10T14:10:10;14.91;84.60
78490;DHT22;67776;52.012;4.736;2023-05-10T14:12:35;15.03;83.91
78490;DHT22;67776;52.012;4.736;2023-05-10T14:15:01;14.98;85.18
78490;DHT22;67776;52.012;4.736;2023-05-10T14:17:27;15.12;84.02
78490;DHT22;67776;52.012;4.736;2023-05-10T14:19:52;15.20;81.95
78490;DHT22;67776;52.012;4.736;2023-05-10T14:22:18;15.28;82.20
78490;DHT22;67776;52.012;4.736;2023-05-10T14:24:43;15.36;82.89
78490;DHT22;67776;52.012;4.736;2023-05-10T14:27:12;15.34;83.50
78490;DHT22;67776;52.012;4.736;2023-05-10T14:29:37;15.38;84.10
78490;DHT22;67776;52.012;4.736;2023-05-10T14:32:02;15.43;83.46
78490;DHT22;67776;52.012;4.736;2023-05-10T14:34:28;15.42;82.51
78490;DHT22;67776;52.012;4.736;2023-05-10T14:36:53;15.38;80.88
78490;DHT22;67776;52.012;4.736;2023-05-10T14:39:19;15.36;82.39
78490;DHT22;67776;52.012;4.736;2023-05-10T14:41:44;15.31;80.30
78490;DHT22;67776;52.012;4.736;2023-05-10T14:44:11;15.25;81.16
78490;DHT22;67776;52.012;4.736;2023-05-10T14:46:36;15.32;81.66
78490;DHT22;67776;52.012;4.736;2023-05-10T14:49:03;15.39;81.98
78490;DHT22;67776;52.012;4.736;2023-05-10T14:51:31;15.53;82.50
78490;DHT22;67776;52.012;4.736;2023-05-10T14:53:57;15.58;82.21
78490;DHT22;67776;52.012;4.736;2023-05-10T14:56:22;15.36;82.11
78490;DHT22;67776;52.012;4.736;2023-05-10T14:58:47;15.52;81.90
78490;DHT22;67776;52.012;4.736;2023-05-10T15:01:12;15.60;82.26
78490;DHT22;67776;52.012;4.736;2023-05-10T15:03:38;15.76;82.81
78490;DHT22;67776;52.012;4.736;2023-05-10T15:06:04;15.66;81.29
78490;DHT22;67776;52.012;4.736;2023-05-10T15:08:29;15.76;81.43
78490;DHT22;67776;52.012;4.736;2023-05-10T15:10:55;15.86;78.94
78490;DHT22;67776;52.012;4.736;2023-05-10T15:13:21;15.71;80.62
78490;DHT22;67776;52.012;4.736;2023-05-10T15:15:46;15.77;80.85
78490;DHT22;67776;52.012;4.736;2023-05-10T15:18:12;15.76;80.99
78490;DHT22;67776;52.012;4.736;2023-05-10T15:20:37;15.76;80.80
78490;DHT22;67776;52.012;4.736;2023-05-10T15:23:02;15.62;80.22
78490;DHT22;67776;52.012;4.736;2023-05-10T15:25:28;15.67;80.04
78490;DHT22;67776;52.012;4.736;2023-05-10T15:27:54;15.63;81.94
78490;DHT22;67776;52.012;4.736;2023-05-10T15:30:19;15.38;80.50
78490;DHT22;67776;52.012;4.736;2023-05-10T15:32:45;15.51;80.28
78490;DHT22;67776;52.012;4.736;2023-05-10T15:35:10;15.48;81.06
78490;DHT22;67776;52.012;4.736;2023-05-10T15:37:36;15.62;81.94
78490;DHT22;67776;52.012;4.736;2023-05-10T15:40:02;15.65;79.85
78490;DHT22;67776;52.012;4.736;2023-05-10T15:42:30;15.71;78.80
78490;DHT22;67776;52.012;4.736;2023-05-10T15:44:56;15.80;79.20
78490;DHT22;67776;52.012;4.736;2023-05-10T15:47:23;15.79;81.04
78490;DHT22;67776;52.012;4.736;2023-05-10T15:49:48;15.74;80.96
78490;DHT22;67776;52.012;4.736;2023-05-10T15:52:13;15.74;79.71
78490;DHT22;67776;52.012;4.736;2023-05-10T15:54:39;15.71;81.11
78490;DHT22;67776;52.012;4.736;2023-05-10T15:57:05;15.79;80.44
78490;DHT22;67776;52.012;4.736;2023-05-10T15:59:31;15.67;81.93
78490;DHT22;67776;52.012;4.736;2023-05-10T16:01:57;15.53;81.97